RYR6CA LFBT-EIDW
Flight info
| Callsign | RYR6CA |
|---|---|
| Flight time | 1h 54m |
| Altitude | 36000 |
| Route | LMB G17 USAKU DCT AGN DCT SECHE DCT UVELI DCT CNA/N0441F380 DCT MANAK DCT MUREL DCT NOZHU/N0435F370 DCT SHIRI/N0439F380 DCT UNFIT DCT PENWU DCT NICXI DCT LEMGU M17 VATRY VATRY4L |
| Aircraft | B738/M-SDE2E3FGHIRWXY/LB1 |
Departure
| Time | 2026-05-07 18:11 |
|---|---|
| Airport | Tarbes-Lourdes-Pyrénées Airport (LFBT) |
Arrival
| Time | 2026-05-07 20:05 |
|---|---|
| Airport | Dublin Airport (EIDW) |
| Time | Latitude | Longitude | Altitude | Speed | Heading |
|---|---|---|---|---|---|
| 2026-05-07 17:54 | 43.18503 | 0.00250 | 1195 ft | 0 kts | 16° |
| 2026-05-07 18:02 | 43.18502 | 0.00250 | 1195 ft | 2 kts | 16° |
| 2026-05-07 18:03 | 43.18479 | 0.00240 | 1195 ft | 4 kts | 14° |
| 2026-05-07 18:03 | 43.18452 | 0.00234 | 1195 ft | 4 kts | 0° |
| 2026-05-07 18:03 | 43.18427 | 0.00239 | 1196 ft | 4 kts | 329° |
| 2026-05-07 18:03 | 43.18413 | 0.00260 | 1196 ft | 1 kts | 280° |
| 2026-05-07 18:04 | 43.18412 | 0.00267 | 1196 ft | 2 kts | 280° |
| 2026-05-07 18:05 | 43.18412 | 0.00262 | 1196 ft | 2 kts | 280° |
| 2026-05-07 18:06 | 43.18420 | 0.00205 | 1197 ft | 10 kts | 280° |
| 2026-05-07 18:06 | 43.18425 | 0.00137 | 1197 ft | 13 kts | 251° |
| 2026-05-07 18:06 | 43.18317 | 0.00039 | 1201 ft | 14 kts | 208° |
| 2026-05-07 18:06 | 43.18232 | -0.00024 | 1204 ft | 14 kts | 209° |
| 2026-05-07 18:07 | 43.18145 | -0.00090 | 1207 ft | 15 kts | 209° |
| 2026-05-07 18:07 | 43.18045 | -0.00167 | 1211 ft | 17 kts | 209° |
| 2026-05-07 18:07 | 43.17933 | -0.00253 | 1214 ft | 19 kts | 209° |
| 2026-05-07 18:07 | 43.17810 | -0.00347 | 1218 ft | 21 kts | 209° |
| 2026-05-07 18:08 | 43.17722 | -0.00413 | 1220 ft | 22 kts | 209° |
| 2026-05-07 18:08 | 43.17580 | -0.00508 | 1224 ft | 23 kts | 203° |
| 2026-05-07 18:08 | 43.17435 | -0.00586 | 1229 ft | 22 kts | 200° |
| 2026-05-07 18:08 | 43.17247 | -0.00681 | 1245 ft | 21 kts | 200° |
| 2026-05-07 18:09 | 43.17111 | -0.00750 | 1254 ft | 21 kts | 200° |
| 2026-05-07 18:09 | 43.16978 | -0.00817 | 1248 ft | 20 kts | 201° |
| 2026-05-07 18:09 | 43.16850 | -0.00883 | 1256 ft | 19 kts | 200° |
| 2026-05-07 18:09 | 43.16767 | -0.00925 | 1262 ft | 19 kts | 200° |
| 2026-05-07 18:10 | 43.16656 | -0.01012 | 1262 ft | 18 kts | 218° |
| 2026-05-07 18:10 | 43.16579 | -0.01141 | 1264 ft | 18 kts | 265° |
| 2026-05-07 18:10 | 43.16627 | -0.01260 | 1267 ft | 9 kts | 14° |
| 2026-05-07 18:10 | 43.16697 | -0.01227 | 1263 ft | 14 kts | 19° |
| 2026-05-07 18:11 | 43.16981 | -0.01083 | 1254 ft | 81 kts | 20° |
| 2026-05-07 18:11 | 43.17738 | -0.00700 | 1226 ft | 147 kts | 20° |
| 2026-05-07 18:11 | 43.18721 | -0.00207 | 1842 ft | 150 kts | 21° |
| 2026-05-07 18:11 | 43.19735 | 0.00307 | 2507 ft | 160 kts | 24° |
| 2026-05-07 18:12 | 43.20806 | 0.00856 | 3121 ft | 174 kts | 24° |
| 2026-05-07 18:12 | 43.22056 | 0.01496 | 3438 ft | 207 kts | 23° |
| 2026-05-07 18:12 | 43.23444 | 0.02196 | 3988 ft | 216 kts | 22° |
| 2026-05-07 18:12 | 43.24929 | 0.02709 | 4603 ft | 226 kts | 4° |
| 2026-05-07 18:13 | 43.26588 | 0.02542 | 4934 ft | 256 kts | 352° |
| 2026-05-07 18:13 | 43.28410 | 0.02041 | 5496 ft | 273 kts | 348° |
| 2026-05-07 18:13 | 43.30267 | 0.01447 | 6417 ft | 275 kts | 347° |
| 2026-05-07 18:13 | 43.32143 | 0.00836 | 7287 ft | 280 kts | 347° |
| 2026-05-07 18:14 | 43.34055 | 0.00216 | 8137 ft | 284 kts | 346° |
| 2026-05-07 18:14 | 43.35971 | -0.00401 | 8996 ft | 288 kts | 346° |
| 2026-05-07 18:14 | 43.37938 | -0.01029 | 9865 ft | 293 kts | 345° |
| 2026-05-07 18:14 | 43.39945 | -0.01668 | 10498 ft | 305 kts | 345° |
| 2026-05-07 18:15 | 43.42099 | -0.02355 | 10695 ft | 330 kts | 345° |
| 2026-05-07 18:15 | 43.44394 | -0.03082 | 11210 ft | 343 kts | 345° |
| 2026-05-07 18:15 | 43.46728 | -0.03816 | 12030 ft | 345 kts | 345° |
| 2026-05-07 18:15 | 43.49076 | -0.04553 | 12880 ft | 348 kts | 345° |
| 2026-05-07 18:16 | 43.51452 | -0.05298 | 13675 ft | 352 kts | 345° |
| 2026-05-07 18:16 | 43.53848 | -0.06051 | 14381 ft | 356 kts | 345° |
| 2026-05-07 18:16 | 43.56251 | -0.06808 | 15060 ft | 360 kts | 345° |
| 2026-05-07 18:16 | 43.58706 | -0.07581 | 15748 ft | 365 kts | 345° |
| 2026-05-07 18:17 | 43.61197 | -0.08365 | 16440 ft | 369 kts | 345° |
| 2026-05-07 18:17 | 43.63708 | -0.09156 | 17110 ft | 373 kts | 345° |
| 2026-05-07 18:17 | 43.66257 | -0.09960 | 17792 ft | 377 kts | 345° |
| 2026-05-07 18:17 | 43.68833 | -0.10774 | 18422 ft | 382 kts | 345° |
| 2026-05-07 18:18 | 43.71439 | -0.11597 | 19000 ft | 386 kts | 345° |
| 2026-05-07 18:18 | 43.74069 | -0.12429 | 19594 ft | 389 kts | 345° |
| 2026-05-07 18:18 | 43.76709 | -0.13265 | 20171 ft | 393 kts | 345° |
| 2026-05-07 18:18 | 43.79390 | -0.14115 | 20757 ft | 396 kts | 345° |
| 2026-05-07 18:19 | 43.82087 | -0.14970 | 21303 ft | 400 kts | 345° |
| 2026-05-07 18:19 | 43.84777 | -0.15825 | 21837 ft | 404 kts | 345° |
| 2026-05-07 18:19 | 43.87528 | -0.16700 | 22384 ft | 407 kts | 345° |
| 2026-05-07 18:19 | 43.90299 | -0.17582 | 22916 ft | 411 kts | 345° |
| 2026-05-07 18:20 | 43.93096 | -0.18472 | 23442 ft | 414 kts | 344° |
| 2026-05-07 18:20 | 43.95918 | -0.19372 | 23878 ft | 418 kts | 344° |
| 2026-05-07 18:20 | 43.98758 | -0.20278 | 24325 ft | 420 kts | 344° |
| 2026-05-07 18:20 | 44.01581 | -0.21179 | 24762 ft | 423 kts | 344° |
| 2026-05-07 18:21 | 44.04457 | -0.22098 | 25187 ft | 426 kts | 344° |
| 2026-05-07 18:21 | 44.07357 | -0.23026 | 25601 ft | 429 kts | 344° |
| 2026-05-07 18:21 | 44.10272 | -0.23960 | 26010 ft | 431 kts | 344° |
| 2026-05-07 18:21 | 44.13207 | -0.24901 | 26414 ft | 434 kts | 344° |
| 2026-05-07 18:22 | 44.16159 | -0.25849 | 26798 ft | 437 kts | 344° |
| 2026-05-07 18:22 | 44.18130 | -0.26482 | 27059 ft | 439 kts | 344° |
| 2026-05-07 18:22 | 44.22118 | -0.27765 | 27558 ft | 442 kts | 344° |
| 2026-05-07 18:22 | 44.25129 | -0.28734 | 27925 ft | 445 kts | 344° |
| 2026-05-07 18:23 | 44.28114 | -0.29696 | 28280 ft | 448 kts | 344° |
| 2026-05-07 18:23 | 44.31155 | -0.30678 | 28637 ft | 450 kts | 344° |
| 2026-05-07 18:23 | 44.34215 | -0.31666 | 28968 ft | 453 kts | 344° |
| 2026-05-07 18:23 | 44.37294 | -0.32661 | 29303 ft | 455 kts | 344° |
| 2026-05-07 18:24 | 44.40386 | -0.33662 | 29625 ft | 458 kts | 344° |
| 2026-05-07 18:24 | 44.43496 | -0.34670 | 29947 ft | 460 kts | 344° |
| 2026-05-07 18:24 | 44.46630 | -0.35687 | 30222 ft | 462 kts | 344° |
| 2026-05-07 18:24 | 44.49763 | -0.36704 | 30489 ft | 464 kts | 344° |
| 2026-05-07 18:25 | 44.52918 | -0.37729 | 30766 ft | 466 kts | 344° |
| 2026-05-07 18:25 | 44.56069 | -0.38754 | 31126 ft | 465 kts | 344° |
| 2026-05-07 18:25 | 44.59214 | -0.39778 | 31509 ft | 463 kts | 344° |
| 2026-05-07 18:25 | 44.62344 | -0.40798 | 31883 ft | 462 kts | 344° |
| 2026-05-07 18:26 | 44.65444 | -0.41809 | 32217 ft | 462 kts | 344° |
| 2026-05-07 18:26 | 44.68572 | -0.42832 | 32538 ft | 462 kts | 344° |
| 2026-05-07 18:26 | 44.71698 | -0.43856 | 32872 ft | 461 kts | 344° |
| 2026-05-07 18:26 | 44.74818 | -0.44878 | 33229 ft | 460 kts | 344° |
| 2026-05-07 18:27 | 44.77939 | -0.45902 | 33574 ft | 460 kts | 344° |
| 2026-05-07 18:27 | 44.81053 | -0.46925 | 33874 ft | 460 kts | 344° |
| 2026-05-07 18:27 | 44.84169 | -0.47949 | 34145 ft | 460 kts | 344° |
| 2026-05-07 18:27 | 44.87285 | -0.48975 | 34421 ft | 459 kts | 344° |
| 2026-05-07 18:28 | 44.90351 | -0.49985 | 34664 ft | 459 kts | 344° |
| 2026-05-07 18:28 | 44.93459 | -0.51010 | 34907 ft | 459 kts | 344° |
| 2026-05-07 18:28 | 44.96573 | -0.52039 | 35157 ft | 459 kts | 344° |
| 2026-05-07 18:28 | 44.99679 | -0.53065 | 35416 ft | 458 kts | 344° |
| 2026-05-07 18:29 | 45.02786 | -0.54094 | 35654 ft | 458 kts | 344° |
| 2026-05-07 18:29 | 45.05888 | -0.55121 | 35896 ft | 458 kts | 343° |
| 2026-05-07 18:29 | 45.09001 | -0.56155 | 35927 ft | 462 kts | 343° |
| 2026-05-07 18:30 | 45.15263 | -0.58236 | 35937 ft | 462 kts | 343° |
| 2026-05-07 18:30 | 45.21452 | -0.60294 | 35931 ft | 456 kts | 343° |
| 2026-05-07 18:31 | 45.27620 | -0.62352 | 35947 ft | 455 kts | 343° |
| 2026-05-07 18:31 | 45.33778 | -0.64413 | 35946 ft | 454 kts | 343° |
| 2026-05-07 18:32 | 45.39927 | -0.66475 | 35940 ft | 454 kts | 343° |
| 2026-05-07 18:32 | 45.46045 | -0.68531 | 35948 ft | 455 kts | 343° |
| 2026-05-07 18:33 | 45.52205 | -0.70605 | 35949 ft | 455 kts | 343° |
| 2026-05-07 18:33 | 45.58373 | -0.72688 | 35947 ft | 456 kts | 343° |
| 2026-05-07 18:34 | 45.64562 | -0.74781 | 35949 ft | 457 kts | 343° |
| 2026-05-07 18:34 | 45.70710 | -0.76865 | 35948 ft | 458 kts | 343° |
| 2026-05-07 18:35 | 45.76914 | -0.78974 | 35950 ft | 458 kts | 343° |
| 2026-05-07 18:35 | 45.83132 | -0.81091 | 35951 ft | 459 kts | 343° |
| 2026-05-07 18:36 | 45.89341 | -0.83211 | 35952 ft | 459 kts | 343° |
| 2026-05-07 18:36 | 45.95566 | -0.85341 | 35956 ft | 459 kts | 343° |
| 2026-05-07 18:37 | 46.01738 | -0.87457 | 35957 ft | 459 kts | 343° |
| 2026-05-07 18:37 | 46.07958 | -0.89596 | 35964 ft | 459 kts | 343° |
| 2026-05-07 18:38 | 46.14166 | -0.91735 | 35965 ft | 459 kts | 343° |
| 2026-05-07 18:38 | 46.20373 | -0.93928 | 35960 ft | 457 kts | 340° |
| 2026-05-07 18:38 | 46.23289 | -0.95537 | 35958 ft | 452 kts | 329° |
| 2026-05-07 18:39 | 46.26044 | -0.97690 | 35975 ft | 450 kts | 327° |
| 2026-05-07 18:39 | 46.31503 | -1.02111 | 35967 ft | 450 kts | 327° |
| 2026-05-07 18:40 | 46.36978 | -1.06506 | 35964 ft | 450 kts | 327° |
| 2026-05-07 18:40 | 46.42462 | -1.10859 | 35966 ft | 450 kts | 328° |
| 2026-05-07 18:41 | 46.47921 | -1.15182 | 35965 ft | 450 kts | 328° |
| 2026-05-07 18:41 | 46.53420 | -1.19542 | 35967 ft | 450 kts | 328° |
| 2026-05-07 18:42 | 46.58913 | -1.23909 | 35968 ft | 450 kts | 328° |
| 2026-05-07 18:42 | 46.64405 | -1.28287 | 35968 ft | 450 kts | 328° |
| 2026-05-07 18:43 | 46.69895 | -1.32674 | 35967 ft | 450 kts | 328° |
| 2026-05-07 18:43 | 46.75353 | -1.37046 | 35968 ft | 450 kts | 327° |
| 2026-05-07 18:44 | 46.80847 | -1.41457 | 35971 ft | 450 kts | 328° |
| 2026-05-07 18:44 | 46.86333 | -1.45871 | 35961 ft | 451 kts | 327° |
| 2026-05-07 18:45 | 46.91825 | -1.50301 | 35973 ft | 451 kts | 327° |
| 2026-05-07 18:45 | 46.97274 | -1.54707 | 35971 ft | 450 kts | 328° |
| 2026-05-07 18:46 | 47.02759 | -1.59152 | 35965 ft | 450 kts | 328° |
| 2026-05-07 18:46 | 47.08234 | -1.63599 | 35963 ft | 450 kts | 328° |
| 2026-05-07 18:47 | 47.13712 | -1.68060 | 35968 ft | 450 kts | 328° |
| 2026-05-07 18:47 | 47.19176 | -1.72520 | 35968 ft | 449 kts | 327° |
| 2026-05-07 18:48 | 47.24603 | -1.76960 | 35968 ft | 449 kts | 328° |
| 2026-05-07 18:48 | 47.30056 | -1.81432 | 35970 ft | 449 kts | 328° |
| 2026-05-07 18:49 | 47.35512 | -1.85917 | 35965 ft | 449 kts | 328° |
| 2026-05-07 18:49 | 47.40929 | -1.90381 | 35970 ft | 448 kts | 328° |
| 2026-05-07 18:50 | 47.46366 | -1.94872 | 35973 ft | 448 kts | 328° |
| 2026-05-07 18:50 | 47.51808 | -1.99377 | 35969 ft | 448 kts | 328° |
| 2026-05-07 18:51 | 47.57235 | -2.03881 | 35966 ft | 447 kts | 328° |
| 2026-05-07 18:51 | 47.62670 | -2.08402 | 35974 ft | 447 kts | 328° |
| 2026-05-07 18:52 | 47.68056 | -2.12894 | 35980 ft | 447 kts | 328° |
| 2026-05-07 18:52 | 47.73470 | -2.17420 | 35976 ft | 447 kts | 328° |
| 2026-05-07 18:53 | 47.78893 | -2.21964 | 35962 ft | 447 kts | 328° |
| 2026-05-07 18:53 | 47.84303 | -2.26509 | 35979 ft | 447 kts | 328° |
| 2026-05-07 18:54 | 47.89678 | -2.31034 | 35984 ft | 446 kts | 328° |
| 2026-05-07 18:54 | 47.95082 | -2.35596 | 35974 ft | 446 kts | 327° |
| 2026-05-07 18:55 | 48.00486 | -2.40168 | 35982 ft | 446 kts | 327° |
| 2026-05-07 18:55 | 48.05884 | -2.44746 | 35982 ft | 446 kts | 327° |
| 2026-05-07 18:56 | 48.11284 | -2.49337 | 35980 ft | 446 kts | 327° |
| 2026-05-07 18:56 | 48.16641 | -2.53903 | 35989 ft | 446 kts | 327° |
| 2026-05-07 18:57 | 48.22039 | -2.58515 | 35982 ft | 446 kts | 327° |
| 2026-05-07 18:57 | 48.27430 | -2.63132 | 35987 ft | 446 kts | 327° |
| 2026-05-07 18:58 | 48.32824 | -2.67763 | 35981 ft | 447 kts | 327° |
| 2026-05-07 18:58 | 48.38213 | -2.72402 | 35989 ft | 447 kts | 327° |
| 2026-05-07 18:59 | 48.43573 | -2.77026 | 35991 ft | 447 kts | 327° |
| 2026-05-07 18:59 | 48.48966 | -2.81690 | 35993 ft | 447 kts | 327° |
| 2026-05-07 19:00 | 48.54349 | -2.86358 | 35999 ft | 447 kts | 327° |
| 2026-05-07 19:00 | 48.59729 | -2.91035 | 35998 ft | 447 kts | 327° |
| 2026-05-07 19:01 | 48.65084 | -2.95701 | 35993 ft | 447 kts | 327° |
| 2026-05-07 19:01 | 48.70468 | -3.00404 | 35988 ft | 447 kts | 327° |
| 2026-05-07 19:02 | 48.75848 | -3.05115 | 35988 ft | 447 kts | 327° |
| 2026-05-07 19:02 | 48.81228 | -3.09838 | 35992 ft | 447 kts | 327° |
| 2026-05-07 19:03 | 48.86603 | -3.14569 | 35985 ft | 447 kts | 327° |
| 2026-05-07 19:03 | 48.91942 | -3.19280 | 35990 ft | 446 kts | 327° |
| 2026-05-07 19:04 | 48.97309 | -3.24028 | 35996 ft | 447 kts | 327° |
| 2026-05-07 19:04 | 49.02683 | -3.28794 | 35990 ft | 447 kts | 327° |
| 2026-05-07 19:05 | 49.08047 | -3.33563 | 35983 ft | 447 kts | 327° |
| 2026-05-07 19:05 | 49.13414 | -3.38346 | 35984 ft | 447 kts | 327° |
| 2026-05-07 19:06 | 49.18744 | -3.43109 | 35980 ft | 447 kts | 327° |
| 2026-05-07 19:06 | 49.26793 | -3.50324 | 35982 ft | 447 kts | 327° |
| 2026-05-07 19:07 | 49.32170 | -3.55107 | 35982 ft | 448 kts | 329° |
| 2026-05-07 19:07 | 49.37919 | -3.58696 | 35987 ft | 451 kts | 338° |
| 2026-05-07 19:08 | 49.43841 | -3.61863 | 35981 ft | 451 kts | 338° |
| 2026-05-07 19:08 | 49.49740 | -3.65141 | 35983 ft | 451 kts | 337° |
| 2026-05-07 19:09 | 49.55615 | -3.68505 | 35987 ft | 450 kts | 337° |
| 2026-05-07 19:09 | 49.61446 | -3.71860 | 35985 ft | 451 kts | 337° |
| 2026-05-07 19:10 | 49.67342 | -3.75153 | 35982 ft | 452 kts | 342° |
| 2026-05-07 19:10 | 49.73611 | -3.76234 | 35984 ft | 458 kts | 2° |
| 2026-05-07 19:11 | 49.79960 | -3.75388 | 35992 ft | 458 kts | 3° |
| 2026-05-07 19:11 | 49.86311 | -3.74533 | 35992 ft | 458 kts | 3° |
| 2026-05-07 19:12 | 49.92630 | -3.73754 | 35996 ft | 458 kts | 2° |
| 2026-05-07 19:12 | 49.98984 | -3.72998 | 35995 ft | 459 kts | 2° |
| 2026-05-07 19:13 | 50.05351 | -3.72240 | 36004 ft | 459 kts | 2° |
| 2026-05-07 19:13 | 50.11720 | -3.71477 | 35999 ft | 459 kts | 2° |
| 2026-05-07 19:14 | 50.18092 | -3.70710 | 36011 ft | 459 kts | 2° |
| 2026-05-07 19:14 | 50.24428 | -3.69946 | 36018 ft | 459 kts | 2° |
| 2026-05-07 19:15 | 50.30806 | -3.69174 | 36009 ft | 460 kts | 3° |
| 2026-05-07 19:15 | 50.37176 | -3.68405 | 36011 ft | 460 kts | 2° |
| 2026-05-07 19:16 | 50.43482 | -3.69268 | 36017 ft | 454 kts | 343° |
| 2026-05-07 19:16 | 50.49377 | -3.72745 | 36013 ft | 452 kts | 335° |
| 2026-05-07 19:17 | 50.55161 | -3.76441 | 36021 ft | 452 kts | 335° |
| 2026-05-07 19:17 | 50.61001 | -3.80106 | 36020 ft | 452 kts | 336° |
| 2026-05-07 19:18 | 50.66857 | -3.83756 | 36022 ft | 453 kts | 336° |
| 2026-05-07 19:18 | 50.72712 | -3.87410 | 36020 ft | 453 kts | 336° |
| 2026-05-07 19:19 | 50.78576 | -3.91082 | 36015 ft | 453 kts | 336° |
| 2026-05-07 19:19 | 50.84392 | -3.94736 | 36015 ft | 453 kts | 336° |
| 2026-05-07 19:20 | 50.90245 | -3.98423 | 36019 ft | 453 kts | 336° |
| 2026-05-07 19:20 | 50.96098 | -4.02120 | 36016 ft | 453 kts | 336° |
| 2026-05-07 19:21 | 51.01957 | -4.05831 | 36015 ft | 453 kts | 336° |
| 2026-05-07 19:21 | 51.07774 | -4.09526 | 36016 ft | 453 kts | 336° |
| 2026-05-07 19:22 | 51.13621 | -4.13249 | 36016 ft | 453 kts | 336° |
| 2026-05-07 19:22 | 51.19483 | -4.16992 | 36013 ft | 453 kts | 336° |
| 2026-05-07 19:23 | 51.25328 | -4.20735 | 36018 ft | 453 kts | 336° |
| 2026-05-07 19:23 | 51.31144 | -4.24470 | 36015 ft | 453 kts | 335° |
| 2026-05-07 19:24 | 51.36983 | -4.28230 | 36019 ft | 453 kts | 335° |
| 2026-05-07 19:24 | 51.42815 | -4.32014 | 36005 ft | 450 kts | 334° |
| 2026-05-07 19:25 | 51.48467 | -4.36209 | 35568 ft | 449 kts | 332° |
| 2026-05-07 19:25 | 51.51265 | -4.38394 | 35040 ft | 448 kts | 332° |
| 2026-05-07 19:25 | 51.54062 | -4.40576 | 34591 ft | 444 kts | 332° |
| 2026-05-07 19:26 | 51.56808 | -4.42701 | 34182 ft | 445 kts | 332° |
| 2026-05-07 19:26 | 51.59610 | -4.44857 | 33685 ft | 448 kts | 332° |
| 2026-05-07 19:26 | 51.62458 | -4.47040 | 33199 ft | 448 kts | 332° |
| 2026-05-07 19:26 | 51.65243 | -4.49173 | 32736 ft | 448 kts | 332° |
| 2026-05-07 19:27 | 51.68053 | -4.51327 | 32283 ft | 448 kts | 332° |
| 2026-05-07 19:27 | 51.70867 | -4.53488 | 31835 ft | 447 kts | 332° |
| 2026-05-07 19:27 | 51.73675 | -4.55648 | 31403 ft | 447 kts | 332° |
| 2026-05-07 19:27 | 51.76385 | -4.58066 | 30958 ft | 444 kts | 323° |
| 2026-05-07 19:28 | 51.78789 | -4.61154 | 30503 ft | 441 kts | 314° |
| 2026-05-07 19:28 | 51.80836 | -4.64815 | 30037 ft | 439 kts | 306° |
| 2026-05-07 19:28 | 51.82741 | -4.68688 | 29523 ft | 439 kts | 306° |
| 2026-05-07 19:28 | 51.84630 | -4.72496 | 29037 ft | 440 kts | 306° |
| 2026-05-07 19:29 | 51.86556 | -4.76336 | 28572 ft | 440 kts | 307° |
| 2026-05-07 19:29 | 51.88497 | -4.80174 | 28093 ft | 441 kts | 307° |
| 2026-05-07 19:29 | 51.90449 | -4.84022 | 27620 ft | 443 kts | 307° |
| 2026-05-07 19:29 | 51.92408 | -4.87882 | 27148 ft | 445 kts | 307° |
| 2026-05-07 19:30 | 51.94378 | -4.91771 | 26672 ft | 447 kts | 307° |
| 2026-05-07 19:30 | 51.96352 | -4.95674 | 26194 ft | 448 kts | 307° |
| 2026-05-07 19:30 | 51.98327 | -4.99588 | 25714 ft | 449 kts | 307° |
| 2026-05-07 19:30 | 52.00393 | -5.03408 | 25226 ft | 452 kts | 313° |
| 2026-05-07 19:31 | 52.02782 | -5.06622 | 24772 ft | 451 kts | 323° |
| 2026-05-07 19:31 | 52.05421 | -5.09220 | 24515 ft | 438 kts | 330° |
| 2026-05-07 19:31 | 52.08216 | -5.11120 | 24217 ft | 433 kts | 338° |
| 2026-05-07 19:31 | 52.11046 | -5.12790 | 23783 ft | 430 kts | 338° |
| 2026-05-07 19:32 | 52.13844 | -5.14454 | 23312 ft | 427 kts | 337° |
| 2026-05-07 19:32 | 52.16617 | -5.16125 | 22809 ft | 423 kts | 337° |
| 2026-05-07 19:32 | 52.19363 | -5.17797 | 22365 ft | 419 kts | 337° |
| 2026-05-07 19:32 | 52.22085 | -5.19467 | 21915 ft | 416 kts | 337° |
| 2026-05-07 19:33 | 52.24787 | -5.21132 | 21475 ft | 414 kts | 337° |
| 2026-05-07 19:33 | 52.27432 | -5.22768 | 21025 ft | 411 kts | 337° |
| 2026-05-07 19:33 | 52.30102 | -5.24421 | 20585 ft | 409 kts | 337° |
| 2026-05-07 19:33 | 52.32753 | -5.26065 | 20154 ft | 407 kts | 337° |
| 2026-05-07 19:34 | 52.35364 | -5.27685 | 20023 ft | 393 kts | 337° |
| 2026-05-07 19:34 | 52.37869 | -5.29238 | 20001 ft | 380 kts | 336° |
| 2026-05-07 19:34 | 52.40338 | -5.30773 | 20011 ft | 378 kts | 336° |
| 2026-05-07 19:34 | 52.42783 | -5.32296 | 19994 ft | 371 kts | 336° |
| 2026-05-07 19:35 | 52.45176 | -5.33788 | 19992 ft | 365 kts | 336° |
| 2026-05-07 19:35 | 52.47512 | -5.35245 | 19624 ft | 357 kts | 336° |
| 2026-05-07 19:35 | 52.49823 | -5.36690 | 19011 ft | 355 kts | 336° |
| 2026-05-07 19:35 | 52.52139 | -5.38141 | 18330 ft | 355 kts | 336° |
| 2026-05-07 19:36 | 52.54443 | -5.39586 | 17613 ft | 353 kts | 336° |
| 2026-05-07 19:36 | 52.56726 | -5.41018 | 16992 ft | 349 kts | 336° |
| 2026-05-07 19:36 | 52.58953 | -5.42416 | 16397 ft | 345 kts | 336° |
| 2026-05-07 19:36 | 52.61194 | -5.43825 | 16149 ft | 348 kts | 336° |
| 2026-05-07 19:37 | 52.63460 | -5.45252 | 16034 ft | 346 kts | 336° |
| 2026-05-07 19:37 | 52.65675 | -5.46645 | 15991 ft | 334 kts | 336° |
| 2026-05-07 19:37 | 52.67806 | -5.47985 | 15975 ft | 322 kts | 336° |
| 2026-05-07 19:37 | 52.69868 | -5.49283 | 15840 ft | 313 kts | 336° |
| 2026-05-07 19:38 | 52.71890 | -5.50561 | 15393 ft | 311 kts | 336° |
| 2026-05-07 19:38 | 52.73912 | -5.51842 | 14790 ft | 312 kts | 336° |
| 2026-05-07 19:38 | 52.75913 | -5.53110 | 14251 ft | 311 kts | 336° |
| 2026-05-07 19:38 | 52.77954 | -5.54405 | 13756 ft | 309 kts | 336° |
| 2026-05-07 19:39 | 52.79924 | -5.55656 | 13227 ft | 306 kts | 336° |
| 2026-05-07 19:39 | 52.81902 | -5.56912 | 12716 ft | 303 kts | 336° |
| 2026-05-07 19:39 | 52.83858 | -5.58154 | 12213 ft | 300 kts | 336° |
| 2026-05-07 19:39 | 52.85796 | -5.59388 | 11723 ft | 297 kts | 336° |
| 2026-05-07 19:40 | 52.87718 | -5.60611 | 11236 ft | 295 kts | 336° |
| 2026-05-07 19:40 | 52.89624 | -5.61825 | 10744 ft | 292 kts | 336° |
| 2026-05-07 19:40 | 52.91513 | -5.63029 | 10346 ft | 287 kts | 336° |
| 2026-05-07 19:40 | 52.93359 | -5.64208 | 10152 ft | 283 kts | 337° |
| 2026-05-07 19:41 | 52.95163 | -5.65361 | 10007 ft | 282 kts | 336° |
| 2026-05-07 19:41 | 52.96997 | -5.66535 | 9746 ft | 282 kts | 336° |
| 2026-05-07 19:41 | 52.98833 | -5.67712 | 9344 ft | 283 kts | 337° |
| 2026-05-07 19:41 | 53.00676 | -5.68893 | 8924 ft | 285 kts | 336° |
| 2026-05-07 19:42 | 53.02527 | -5.70082 | 8565 ft | 285 kts | 336° |
| 2026-05-07 19:42 | 53.04355 | -5.71254 | 8396 ft | 277 kts | 336° |
| 2026-05-07 19:42 | 53.06131 | -5.72394 | 8213 ft | 271 kts | 337° |
| 2026-05-07 19:42 | 53.07859 | -5.73504 | 8019 ft | 263 kts | 336° |
| 2026-05-07 19:43 | 53.09559 | -5.74596 | 7791 ft | 260 kts | 336° |
| 2026-05-07 19:43 | 53.11248 | -5.75685 | 7486 ft | 261 kts | 336° |
| 2026-05-07 19:43 | 53.12935 | -5.76773 | 7220 ft | 259 kts | 336° |
| 2026-05-07 19:43 | 53.14599 | -5.77848 | 6913 ft | 260 kts | 336° |
| 2026-05-07 19:44 | 53.16278 | -5.78933 | 6666 ft | 257 kts | 336° |
| 2026-05-07 19:44 | 53.17929 | -5.80000 | 6348 ft | 253 kts | 336° |
| 2026-05-07 19:44 | 53.19568 | -5.81061 | 5904 ft | 251 kts | 336° |
| 2026-05-07 19:44 | 53.21171 | -5.82097 | 5553 ft | 245 kts | 336° |
| 2026-05-07 19:45 | 53.22738 | -5.83114 | 5132 ft | 241 kts | 336° |
| 2026-05-07 19:45 | 53.24272 | -5.84108 | 4904 ft | 231 kts | 335° |
| 2026-05-07 19:45 | 53.25754 | -5.85068 | 4522 ft | 226 kts | 335° |
| 2026-05-07 19:45 | 53.27221 | -5.86021 | 4082 ft | 226 kts | 335° |
| 2026-05-07 19:46 | 53.28674 | -5.86968 | 3664 ft | 223 kts | 335° |
| 2026-05-07 19:46 | 53.30121 | -5.87911 | 3237 ft | 222 kts | 335° |
| 2026-05-07 19:46 | 53.31532 | -5.88829 | 3038 ft | 222 kts | 335° |
| 2026-05-07 19:46 | 53.32986 | -5.89780 | 3013 ft | 225 kts | 335° |
| 2026-05-07 19:47 | 53.34437 | -5.90724 | 3010 ft | 222 kts | 335° |
| 2026-05-07 19:47 | 53.35874 | -5.91660 | 3000 ft | 221 kts | 335° |
| 2026-05-07 19:47 | 53.37311 | -5.92599 | 3009 ft | 222 kts | 335° |
| 2026-05-07 19:47 | 53.38746 | -5.93545 | 2993 ft | 220 kts | 333° |
| 2026-05-07 19:48 | 53.39941 | -5.94967 | 2982 ft | 202 kts | 303° |
| 2026-05-07 19:48 | 53.40376 | -5.97018 | 3023 ft | 180 kts | 276° |
| 2026-05-07 19:48 | 53.40567 | -5.99096 | 3003 ft | 179 kts | 276° |
| 2026-05-07 19:48 | 53.40730 | -6.01144 | 2976 ft | 177 kts | 274° |
| 2026-05-07 19:49 | 53.40854 | -6.03210 | 2805 ft | 180 kts | 273° |
| 2026-05-07 19:49 | 53.40967 | -6.05302 | 2562 ft | 178 kts | 273° |
| 2026-05-07 19:49 | 53.41074 | -6.07296 | 2320 ft | 165 kts | 272° |
| 2026-05-07 19:49 | 53.41170 | -6.09112 | 2140 ft | 158 kts | 272° |
| 2026-05-07 19:50 | 53.41267 | -6.10952 | 1895 ft | 157 kts | 271° |
| 2026-05-07 19:50 | 53.41363 | -6.12753 | 1692 ft | 155 kts | 272° |
| 2026-05-07 19:50 | 53.41458 | -6.14517 | 1470 ft | 148 kts | 271° |
| 2026-05-07 19:50 | 53.41547 | -6.16191 | 1285 ft | 142 kts | 272° |
| 2026-05-07 19:51 | 53.41634 | -6.17816 | 1075 ft | 139 kts | 271° |
| 2026-05-07 19:51 | 53.41722 | -6.19472 | 890 ft | 146 kts | 272° |
| 2026-05-07 19:51 | 53.41815 | -6.21161 | 693 ft | 145 kts | 273° |
| 2026-05-07 19:51 | 53.41918 | -6.22833 | 524 ft | 143 kts | 272° |
| 2026-05-07 19:52 | 53.41998 | -6.24476 | 324 ft | 140 kts | 272° |
| 2026-05-07 19:52 | 53.42081 | -6.26107 | 367 ft | 143 kts | 272° |
| 2026-05-07 19:52 | 53.42157 | -6.27724 | 995 ft | 141 kts | 271° |
| 2026-05-07 19:52 | 53.42246 | -6.29532 | 1354 ft | 170 kts | 275° |
| 2026-05-07 19:53 | 53.42431 | -6.31581 | 1868 ft | 189 kts | 276° |
| 2026-05-07 19:53 | 53.42642 | -6.33762 | 2410 ft | 192 kts | 277° |
| 2026-05-07 19:53 | 53.42848 | -6.36033 | 2734 ft | 198 kts | 276° |
| 2026-05-07 19:53 | 53.43219 | -6.38221 | 2822 ft | 197 kts | 297° |
| 2026-05-07 19:54 | 53.44215 | -6.39803 | 2941 ft | 205 kts | 332° |
| 2026-05-07 19:54 | 53.45650 | -6.40131 | 2992 ft | 216 kts | 7° |
| 2026-05-07 19:54 | 53.46987 | -6.39021 | 2981 ft | 219 kts | 43° |
| 2026-05-07 19:54 | 53.47756 | -6.36893 | 3010 ft | 217 kts | 70° |
| 2026-05-07 19:55 | 53.48276 | -6.34462 | 3006 ft | 220 kts | 70° |
| 2026-05-07 19:55 | 53.48823 | -6.32097 | 3001 ft | 221 kts | 69° |
| 2026-05-07 19:55 | 53.49389 | -6.29699 | 2997 ft | 221 kts | 68° |
| 2026-05-07 19:55 | 53.49956 | -6.27300 | 2992 ft | 221 kts | 69° |
| 2026-05-07 19:56 | 53.50261 | -6.24790 | 2988 ft | 219 kts | 92° |
| 2026-05-07 19:56 | 53.50122 | -6.22259 | 3002 ft | 217 kts | 98° |
| 2026-05-07 19:56 | 53.49944 | -6.19742 | 2998 ft | 217 kts | 98° |
| 2026-05-07 19:56 | 53.49761 | -6.17223 | 2993 ft | 218 kts | 99° |
| 2026-05-07 19:57 | 53.49582 | -6.14699 | 3002 ft | 218 kts | 98° |
| 2026-05-07 19:57 | 53.49404 | -6.12179 | 2989 ft | 218 kts | 98° |
| 2026-05-07 19:57 | 53.49225 | -6.09651 | 2991 ft | 217 kts | 98° |
| 2026-05-07 19:57 | 53.49050 | -6.07136 | 2993 ft | 217 kts | 98° |
| 2026-05-07 19:58 | 53.48882 | -6.04645 | 3000 ft | 217 kts | 98° |
| 2026-05-07 19:58 | 53.48717 | -6.02142 | 3003 ft | 217 kts | 98° |
| 2026-05-07 19:58 | 53.48553 | -5.99617 | 3004 ft | 217 kts | 98° |
| 2026-05-07 19:58 | 53.48386 | -5.97098 | 2998 ft | 217 kts | 99° |
| 2026-05-07 19:59 | 53.48224 | -5.94590 | 3001 ft | 216 kts | 98° |
| 2026-05-07 19:59 | 53.48045 | -5.92093 | 2989 ft | 212 kts | 103° |
| 2026-05-07 19:59 | 53.47465 | -5.89963 | 3000 ft | 193 kts | 136° |
| 2026-05-07 19:59 | 53.46362 | -5.88934 | 3011 ft | 178 kts | 175° |
| 2026-05-07 20:00 | 53.45194 | -5.89365 | 3013 ft | 175 kts | 215° |
| 2026-05-07 20:00 | 53.44330 | -5.90807 | 3013 ft | 177 kts | 229° |
| 2026-05-07 20:00 | 53.43520 | -5.92353 | 3007 ft | 179 kts | 229° |
| 2026-05-07 20:00 | 53.42709 | -5.93897 | 2997 ft | 175 kts | 229° |
| 2026-05-07 20:01 | 53.42007 | -5.95537 | 2984 ft | 172 kts | 245° |
| 2026-05-07 20:01 | 53.41615 | -5.97421 | 3006 ft | 173 kts | 250° |
| 2026-05-07 20:01 | 53.41201 | -5.99346 | 3014 ft | 177 kts | 249° |
| 2026-05-07 20:01 | 53.40844 | -6.01326 | 2912 ft | 181 kts | 261° |
| 2026-05-07 20:02 | 53.40860 | -6.03420 | 2769 ft | 182 kts | 272° |
| 2026-05-07 20:02 | 53.40979 | -6.05499 | 2528 ft | 173 kts | 273° |
| 2026-05-07 20:02 | 53.41082 | -6.07413 | 2345 ft | 158 kts | 272° |
| 2026-05-07 20:02 | 53.41177 | -6.09243 | 2103 ft | 156 kts | 272° |
| 2026-05-07 20:03 | 53.41270 | -6.11014 | 1881 ft | 153 kts | 272° |
| 2026-05-07 20:03 | 53.41364 | -6.12780 | 1674 ft | 150 kts | 271° |
| 2026-05-07 20:03 | 53.41455 | -6.14478 | 1468 ft | 143 kts | 271° |
| 2026-05-07 20:03 | 53.41542 | -6.16120 | 1284 ft | 140 kts | 271° |
| 2026-05-07 20:04 | 53.41630 | -6.17739 | 1091 ft | 140 kts | 271° |
| 2026-05-07 20:04 | 53.41718 | -6.19382 | 912 ft | 144 kts | 272° |
| 2026-05-07 20:04 | 53.41806 | -6.21057 | 672 ft | 144 kts | 272° |
| 2026-05-07 20:04 | 53.41902 | -6.22708 | 526 ft | 143 kts | 273° |
| 2026-05-07 20:05 | 53.41991 | -6.24391 | 332 ft | 146 kts | 271° |
| 2026-05-07 20:05 | 53.42081 | -6.26080 | 211 ft | 141 kts | 274° |
| 2026-05-07 20:05 | 53.42152 | -6.27382 | 213 ft | 81 kts | 275° |
| 2026-05-07 20:05 | 53.42231 | -6.27950 | 213 ft | 27 kts | 301° |
| 2026-05-07 20:06 | 53.42312 | -6.28129 | 210 ft | 13 kts | 339° |
| 2026-05-07 20:06 | 53.42361 | -6.28037 | 214 ft | 13 kts | 95° |
| 2026-05-07 20:06 | 53.42354 | -6.27892 | 214 ft | 12 kts | 95° |
| 2026-05-07 20:06 | 53.42347 | -6.27750 | 213 ft | 12 kts | 95° |
| 2026-05-07 20:07 | 53.42340 | -6.27611 | 210 ft | 12 kts | 95° |
| 2026-05-07 20:07 | 53.42333 | -6.27477 | 210 ft | 11 kts | 95° |
| 2026-05-07 20:07 | 53.42325 | -6.27335 | 210 ft | 14 kts | 95° |
| 2026-05-07 20:07 | 53.42315 | -6.27163 | 213 ft | 12 kts | 95° |
| 2026-05-07 20:08 | 53.42307 | -6.27020 | 220 ft | 12 kts | 95° |
| 2026-05-07 20:08 | 53.42298 | -6.26861 | 210 ft | 16 kts | 95° |
| 2026-05-07 20:08 | 53.42285 | -6.26641 | 210 ft | 21 kts | 96° |
| 2026-05-07 20:08 | 53.42272 | -6.26405 | 214 ft | 20 kts | 95° |
| 2026-05-07 20:09 | 53.42260 | -6.26177 | 210 ft | 19 kts | 95° |
| 2026-05-07 20:09 | 53.42278 | -6.25964 | 212 ft | 19 kts | 64° |
| 2026-05-07 20:09 | 53.42361 | -6.25802 | 213 ft | 18 kts | 46° |
| 2026-05-07 20:10 | 53.42507 | -6.25551 | 210 ft | 9 kts | 45° |
| 2026-05-07 20:10 | 53.42521 | -6.25527 | 213 ft | 0 kts | 45° |
| 2026-05-07 20:10 | 53.42522 | -6.25527 | 213 ft | 0 kts | 45° |
| 2026-05-07 20:12 | 53.42540 | -6.25496 | 210 ft | 9 kts | 45° |
| 2026-05-07 20:12 | 53.42606 | -6.25383 | 214 ft | 15 kts | 45° |
| 2026-05-07 20:12 | 53.42679 | -6.25260 | 210 ft | 15 kts | 45° |
| 2026-05-07 20:12 | 53.42749 | -6.25140 | 218 ft | 14 kts | 46° |
| 2026-05-07 20:13 | 53.42821 | -6.25037 | 210 ft | 13 kts | 34° |
| 2026-05-07 20:13 | 53.42885 | -6.24929 | 215 ft | 13 kts | 47° |
| 2026-05-07 20:13 | 53.42948 | -6.24887 | 217 ft | 11 kts | 1° |
| 2026-05-07 20:13 | 53.42998 | -6.24879 | 212 ft | 2 kts | 5° |
| 2026-05-07 20:14 | 53.43003 | -6.24878 | 210 ft | 0 kts | 5° |